FW1076 Weather Reports


Display with metric or nautical units.
time (UTC)temp
F
wind
direction
speed
MPH
gust
MPH
rain 1hr
in
rain 24hr
in
rain mn
in
humidity
%
barometer
mb
20210624063048 80 158 1.0 3.0 0.00 0.00 0.00 90 1016.6
20210624061630 81 174 0.0 0.0 0.00 0.00 0.00 89 1016.5
20210624060122 81 174 0.0 2.0 0.00 0.00 0.00 88 1016.5
20210624054609 81 174 0.0 3.0 0.00 0.00 0.00 88 1016.3
20210624053108 81 132 1.0 4.0 0.00 0.00 0.00 87 1016.3
20210624051544 81 176 0.0 2.0 0.00 0.00 0.00 87 1016.5
20210624050045 82 176 1.0 4.0 0.00 0.00 0.00 86 1016.5
20210624044638 82 198 0.0 5.0 0.00 0.00 0.00 85 1016.4
20210624043030 82 130 1.0 4.0 0.00 0.00 0.00 85 1016.3
20210624041635 82 177 1.0 3.0 0.00 0.00 0.00 85 1016.1
20210624040035 83 167 2.0 5.0 0.00 0.00 0.00 84 1015.9
20210624034557 83 143 1.0 7.0 0.00 0.00 0.00 84 1015.7
20210624033039 83 175 2.0 7.0 0.00 0.00 0.00 83 1015.7
20210624031558 84 136 2.0 7.0 0.00 0.00 0.00 81 1015.7
20210624030112 84 160 2.0 7.0 0.00 0.00 0.00 80 1015.5
20210624024548 84 132 2.0 8.0 0.00 0.00 0.00 78 1015.5
20210624023025 85 127 2.0 7.0 0.00 0.00 0.00 78 1015.2
20210624021638 85 133 3.0 7.0 0.00 0.00 0.00 77 1015.0
20210624020041 86 236 2.0 7.0 0.00 0.00 0.00 77 1014.8
20210624014538 86 130 2.0 7.0 0.00 0.00 0.00 76 1014.6
20210624013050 87 190 3.0 10.0 0.00 0.00 0.00 75 1014.6
20210624011706 88 186 2.0 10.0 0.00 0.00 0.00 74 1014.5
20210624010033 88 167 2.0 11.0 0.00 0.00 0.00 73 1014.4
20210624004528 88 101 1.0 10.0 0.00 0.00 0.00 77 1014.3
20210624003023 88 76 2.0 8.0 0.00 0.00 0.00 77 1014.3
20210624001546 88 94 3.0 10.0 0.00 0.00 0.00 78 1014.6
20210624000054 89 80 4.0 12.0 0.00 0.00 0.00 77 1014.5
20210623234543 91 102 7.0 13.0 0.00 0.00 0.00 71 1014.1
20210623233052 92 90 5.0 11.0 0.00 0.00 0.00 69 1014.2
20210623231543 93 34 3.0 12.0 0.00 0.00 0.00 67 1014.3
20210623230027 95 230 1.0 10.0 0.00 0.00 0.00 65 1014.3
20210623224528 96 73 2.0 10.0 0.00 0.00 0.00 64 1014.3
20210623223102 94 75 3.0 9.0 0.00 0.00 0.00 64 1014.2
20210623221517 97 86 4.0 14.0 0.00 0.00 0.00 63 1014.3
20210623220019 95 96 6.0 11.0 0.00 0.00 0.00 67 1014.2
20210623214510 96 103 3.0 9.0 0.00 0.00 0.00 65 1014.1
20210623213013 98 69 2.0 9.0 0.00 0.00 0.00 59 1014.1
20210623211537 96 119 1.0 5.0 0.00 0.00 0.00 62 1014.3
20210623210013 98 91 3.0 7.0 0.00 0.00 0.00 61 1014.5
20210623204536 97 105 2.0 7.0 0.00 0.00 0.00 60 1014.5
20210623203013 97 92 3.0 9.0 0.00 0.00 0.00 61 1014.7
20210623201502 96 61 1.0 7.0 0.00 0.00 0.00 62 1014.8
20210623200159 97 84 2.0 8.0 0.00 0.00 0.00 62 1014.7
20210623194932 98 70 3.0 8.0 0.00 0.00 0.00 59 1014.9
20210623193322 96 84 3.0 8.0 0.00 0.00 0.00 64 1014.9
20210623191756 97 211 2.0 10.0 0.00 0.00 0.00 59 1015.0
20210623190156 95 177 2.0 9.0 0.00 0.00 0.00 60 1015.0
20210623184616 95 209 4.0 8.0 0.00 0.00 0.00 61 1015.2
20210623183200 95 153 3.0 7.0 0.00 0.00 0.00 64 1015.5
20210623181601 95 281 2.0 7.0 0.00 0.00 0.00 62 1015.6
20210623180139 91 130 3.0 6.0 0.00 0.00 0.00 68 1016.0
20210623174637 90 182 1.0 8.0 0.00 0.00 0.00 70 1016.0
20210623173113 90 204 1.0 6.0 0.00 0.00 0.00 69 1016.0
20210623171618 89 198 2.0 5.0 0.00 0.00 0.00 74 1015.9
20210623170050 88 236 2.0 6.0 0.00 0.00 0.00 75 1016.3
20210623164551 87 184 5.0 11.0 0.00 0.00 0.00 80 1016.2
20210623163109 92 146 2.0 7.0 0.00 0.00 0.00 72 1016.0
20210623161607 91 181 2.0 8.0 0.00 0.00 0.00 73 1015.8
20210623160116 91 177 2.0 10.0 0.00 0.00 0.00 73 1016.1
20210623154608 89 93 0.0 4.0 0.00 0.00 0.00 77 1016.2
20210623153118 86 277 1.0 6.0 0.00 0.00 0.00 80 1016.0
20210623151531 88 190 0.0 5.0 0.00 0.00 0.00 79 1016.3
20210623150108 87 121 1.0 3.0 0.00 0.00 0.00 80 1016.2
20210623144527 86 159 1.0 4.0 0.00 0.00 0.00 82 1016.1
20210623143049 86 181 0.0 5.0 0.00 0.00 0.00 83 1016.1
20210623141520 86 101 2.0 6.0 0.00 0.00 0.00 83 1016.1
20210623140016 83 188 1.0 6.0 0.00 0.00 0.00 86 1016.0
20210623134519 82 114 0.0 0.0 0.00 0.00 0.00 88 1016.0
20210623133005 82 114 1.0 4.0 0.00 0.00 0.00 89 1015.8
20210623131505 81 114 1.0 4.0 0.00 0.00 0.00 90 1015.8
20210623130249 80 114 0.0 1.0 0.00 0.00 0.00 92 1015.8
20210623124648 79 114 0.0 2.0 0.00 0.00 0.00 94 1015.6
20210623123227 78 114 0.0 2.0 0.00 0.00 0.00 96 1015.5
20210623121752 77 114 0.0 0.0 0.00 0.00 0.00 96 1015.4
20210623120117 76 114 0.0 2.0 0.00 0.00 0.00 96 1015.2
20210623114558 76 114 0.0 2.0 0.00 0.00 0.00 96 1015.0
20210623113123 76 114 0.0 0.0 0.00 0.00 0.00 96 1015.0
20210623111622 76 114 0.0 0.0 0.00 0.00 0.00 96 1014.9
20210623110125 76 114 0.0 0.0 0.00 0.00 0.00 96 1014.8
20210623104603 76 114 0.0 0.0 0.00 0.01 0.00 96 1014.5
20210623103148 76 114 0.0 0.0 0.00 0.01 0.00 96 1014.5
20210623101633 76 114 0.0 1.0 0.00 0.01 0.00 96 1014.3
20210623100105 76 114 0.0 1.0 0.00 0.01 0.00 95 1014.2
20210623094617 76 114 0.0 0.0 0.00 0.05 0.00 96 1014.0
20210623093123 76 114 0.0 0.0 0.00 0.05 0.00 95 1014.0
20210623091545 76 114 0.0 0.0 0.00 0.05 0.00 95 1014.2
20210623090204 77 114 0.0 0.0 0.00 0.05 0.00 94 1014.2
20210623084620 77 114 0.0 2.0 0.00 0.07 0.00 94 1014.3
20210623083101 77 114 0.0 0.0 0.00 0.07 0.00 94 1014.3
20210623081612 78 114 0.0 0.0 0.00 0.07 0.00 93 1014.5
20210623080045 78 114 0.0 0.0 0.00 0.07 0.00 93 1014.5
20210623074520 78 114 0.0 2.0 0.00 0.11 0.00 92 1014.6
20210623073047 78 114 1.0 2.0 0.00 0.11 0.00 92 1014.7
20210623071517 79 114 0.0 1.0 0.00 0.11 0.00 91 1014.9
20210623070047 79 114 1.0 2.0 0.00 0.11 0.00 91 1014.9
20210623064517 79 114 1.0 2.0 0.00 0.11 0.00 90 1015.1